createdAt,value
2018-07-17T00:02:25.870Z,6.70
2018-07-17T00:04:53.510Z,6.00
2018-07-17T00:07:21.220Z,4.93
2018-07-17T00:09:48.826Z,6.97
2018-07-17T00:12:16.476Z,6.30
2018-07-17T00:14:44.146Z,5.50
2018-07-17T00:17:11.792Z,6.23
2018-07-17T00:19:39.413Z,5.97
2018-07-17T00:22:07.021Z,6.70
2018-07-17T00:24:34.656Z,6.00
2018-07-17T00:27:02.343Z,5.77
2018-07-17T00:29:29.976Z,6.50
2018-07-17T00:31:57.567Z,6.13
2018-07-17T00:34:25.242Z,6.20
2018-07-17T00:36:52.739Z,6.83
2018-07-17T00:39:20.330Z,5.03
2018-07-17T00:41:48.709Z,4.43
2018-07-17T00:44:16.374Z,4.67
2018-07-17T00:46:44.015Z,4.70
2018-07-17T00:49:11.661Z,6.40
2018-07-17T00:51:39.205Z,4.97
2018-07-17T00:54:06.876Z,5.57
2018-07-17T00:56:34.576Z,6.67
2018-07-17T00:59:02.221Z,6.10
2018-07-17T01:01:35.469Z,6.20
2018-07-17T01:04:08.631Z,6.40
2018-07-17T01:06:41.920Z,5.90
2018-07-17T01:09:14.981Z,5.77
2018-07-17T01:11:48.207Z,6.37
2018-07-17T01:14:24.564Z,6.10
2018-07-17T01:16:52.295Z,5.13
2018-07-17T01:19:19.988Z,4.80
2018-07-17T01:21:47.687Z,5.40
2018-07-17T01:24:15.360Z,6.67
2018-07-17T01:26:43.015Z,5.60
2018-07-17T01:29:10.608Z,5.20
2018-07-17T01:31:38.287Z,5.37
2018-07-17T01:34:05.983Z,4.53
2018-07-17T01:36:33.670Z,5.17
2018-07-17T01:39:01.348Z,6.00
2018-07-17T01:41:28.882Z,4.43
2018-07-17T01:43:56.631Z,5.40
2018-07-17T01:46:24.286Z,5.40
2018-07-17T01:48:52.832Z,6.60
2018-07-17T01:51:20.385Z,5.97
2018-07-17T01:53:48.068Z,5.70
2018-07-17T01:56:15.683Z,6.40
2018-07-17T01:58:43.345Z,6.03
2018-07-17T02:01:11.100Z,5.27
2018-07-17T02:03:38.725Z,5.10
2018-07-17T02:06:06.410Z,5.43
2018-07-17T02:08:33.916Z,6.43
2018-07-17T02:11:01.647Z,4.60
2018-07-17T02:13:29.192Z,5.53
2018-07-17T02:15:57.851Z,5.53
2018-07-17T02:18:25.515Z,5.27
2018-07-17T02:20:53.077Z,6.70
2018-07-17T02:23:20.798Z,4.93
2018-07-17T02:25:48.355Z,5.37
2018-07-17T02:28:16.070Z,5.63
2018-07-17T02:30:43.628Z,5.33
2018-07-17T02:33:11.266Z,5.30
2018-07-17T02:35:38.798Z,5.47
2018-07-17T02:38:06.555Z,5.20
2018-07-17T02:40:34.200Z,5.63
2018-07-17T02:43:01.961Z,5.60
2018-07-17T02:45:29.621Z,6.60
2018-07-17T02:47:57.336Z,5.73
2018-07-17T02:50:24.970Z,7.03
2018-07-17T02:52:52.672Z,6.17
2018-07-17T02:55:20.335Z,4.97
2018-07-17T02:57:48.001Z,5.13
2018-07-17T03:00:15.650Z,5.37
2018-07-17T03:02:43.360Z,6.07
2018-07-17T03:05:11.041Z,5.90
2018-07-17T03:07:38.717Z,5.07
2018-07-17T03:10:06.276Z,6.20
2018-07-17T03:12:33.837Z,5.90
2018-07-17T03:15:01.561Z,6.00
2018-07-17T03:17:29.197Z,5.23
2018-07-17T03:19:56.838Z,5.87
2018-07-17T03:22:24.532Z,5.20
2018-07-17T03:24:52.138Z,4.97
2018-07-17T03:27:19.752Z,6.33
2018-07-17T03:29:47.417Z,7.47
2018-07-17T03:32:15.066Z,4.90
2018-07-17T03:34:42.765Z,5.40
2018-07-17T03:37:10.272Z,5.40
2018-07-17T03:39:37.861Z,5.30
2018-07-17T03:42:05.624Z,5.90
2018-07-17T03:44:33.198Z,6.30
2018-07-17T03:47:01.313Z,5.60
2018-07-17T03:49:28.988Z,6.33
2018-07-17T03:51:56.718Z,5.57
2018-07-17T03:54:24.428Z,6.10
2018-07-17T03:56:52.200Z,5.60
2018-07-17T03:59:19.972Z,5.30
2018-07-17T04:01:47.676Z,6.17
2018-07-17T04:04:15.333Z,6.93
2018-07-17T04:06:43.019Z,6.47
2018-07-17T04:09:10.692Z,7.03
2018-07-17T04:11:38.395Z,7.13
2018-07-17T04:14:06.413Z,7.23
2018-07-17T04:16:34.112Z,7.30
2018-07-17T04:19:01.622Z,6.07
2018-07-17T04:21:29.322Z,8.73
2018-07-17T04:23:57.042Z,6.70
2018-07-17T04:26:24.689Z,8.03
2018-07-17T04:28:52.392Z,7.10
2018-07-17T04:31:20.123Z,7.07
2018-07-17T04:33:47.807Z,6.33
2018-07-17T04:36:15.487Z,6.00
2018-07-17T04:38:43.087Z,7.10
2018-07-17T04:41:10.753Z,5.90
2018-07-17T04:43:38.444Z,6.20
2018-07-17T04:46:06.043Z,7.50
2018-07-17T04:48:33.827Z,6.40
2018-07-17T04:51:01.397Z,6.07
2018-07-17T04:53:28.979Z,6.57
2018-07-17T04:55:56.746Z,6.03
2018-07-17T04:58:24.519Z,6.63
2018-07-17T05:00:53.193Z,7.17
2018-07-17T05:03:20.928Z,6.23
2018-07-17T05:05:48.614Z,8.70
2018-07-17T05:08:16.432Z,8.90
2018-07-17T05:10:44.096Z,8.10
2018-07-17T05:13:11.912Z,7.27
2018-07-17T05:15:39.681Z,7.60
2018-07-17T05:18:07.412Z,8.93
2018-07-17T05:20:35.097Z,7.43
2018-07-17T05:23:02.712Z,5.77
2018-07-17T05:25:30.434Z,6.17
2018-07-17T05:27:58.175Z,6.87
2018-07-17T05:30:25.845Z,6.97
2018-07-17T05:32:53.520Z,8.30
2018-07-17T05:35:21.140Z,6.70
2018-07-17T05:37:48.816Z,6.43
2018-07-17T05:40:16.447Z,7.30
2018-07-17T05:42:44.082Z,9.03
2018-07-17T05:45:11.739Z,6.50
2018-07-17T05:47:40.725Z,7.00
2018-07-17T05:50:08.927Z,7.10
2018-07-17T05:52:36.515Z,6.70
2018-07-17T05:55:04.106Z,7.90
2018-07-17T05:57:31.862Z,8.10
2018-07-17T05:59:59.427Z,7.00
2018-07-17T06:02:27.067Z,7.47
2018-07-17T06:04:54.756Z,7.30
2018-07-17T06:07:22.397Z,6.30
2018-07-17T06:09:50.042Z,7.20
2018-07-17T06:12:17.577Z,6.77
2018-07-17T06:14:45.297Z,7.33
2018-07-17T06:17:12.951Z,6.40
2018-07-17T06:19:40.468Z,7.27
2018-07-17T06:22:08.205Z,7.60
2018-07-17T06:24:35.758Z,6.20
2018-07-17T06:27:04.098Z,6.27
2018-07-17T06:29:31.761Z,6.63
2018-07-17T06:31:59.386Z,7.93
2018-07-17T06:34:26.907Z,6.50
2018-07-17T06:36:54.649Z,8.03
2018-07-17T06:39:22.305Z,7.07
2018-07-17T06:41:50.014Z,7.10
2018-07-17T06:44:17.716Z,6.70
2018-07-17T06:46:45.446Z,6.53
2018-07-17T06:49:13.452Z,7.20
2018-07-17T06:51:41.078Z,6.83
2018-07-17T06:54:08.772Z,6.23
2018-07-17T06:56:36.492Z,6.70
2018-07-17T06:59:04.169Z,6.50
2018-07-17T07:01:31.903Z,6.60
2018-07-17T07:03:59.593Z,7.93
2018-07-17T07:06:27.273Z,5.00
2018-07-17T07:08:54.989Z,5.83
2018-07-17T07:11:22.538Z,4.63
2018-07-17T07:13:50.144Z,5.00
2018-07-17T07:16:17.834Z,4.50
2018-07-17T07:18:45.507Z,5.00
2018-07-17T07:21:13.206Z,3.90
2018-07-17T07:23:40.977Z,4.13
2018-07-17T07:26:08.683Z,4.60
2018-07-17T07:28:36.473Z,4.30
2018-07-17T07:31:04.095Z,4.00
2018-07-17T07:33:31.721Z,4.03
2018-07-17T07:35:59.415Z,4.20
2018-07-17T07:38:27.112Z,4.10
2018-07-17T07:40:54.659Z,3.90
2018-07-17T07:43:22.354Z,3.77
2018-07-17T07:45:49.844Z,3.87
2018-07-17T07:48:18.379Z,3.87
2018-07-17T07:50:46.023Z,3.90
2018-07-17T07:53:13.701Z,4.13
2018-07-17T07:55:41.885Z,4.63
2018-07-17T07:58:09.487Z,4.17
2018-07-17T08:00:37.040Z,4.40
2018-07-17T08:03:04.902Z,4.30
2018-07-17T08:05:32.559Z,4.20
2018-07-17T08:08:00.098Z,5.43
2018-07-17T08:10:27.835Z,4.47
2018-07-17T08:12:55.507Z,6.20
2018-07-17T08:15:23.191Z,4.33
2018-07-17T08:17:50.878Z,4.33
2018-07-17T08:20:18.609Z,4.20
2018-07-17T08:22:46.276Z,4.50
2018-07-17T08:25:13.954Z,4.20
2018-07-17T08:27:41.659Z,3.93
2018-07-17T08:30:09.279Z,5.27
2018-07-17T08:32:36.957Z,3.73
2018-07-17T08:35:04.681Z,4.27
2018-07-17T08:37:32.469Z,4.30
2018-07-17T08:39:59.975Z,8.57
2018-07-17T08:42:27.660Z,5.27
2018-07-17T08:44:55.302Z,4.87
2018-07-17T08:47:22.978Z,3.80
2018-07-17T08:49:50.658Z,3.63
2018-07-17T08:52:18.357Z,5.37
2018-07-17T08:54:46.111Z,5.60
2018-07-17T08:57:13.834Z,4.33
2018-07-17T08:59:41.372Z,4.83
2018-07-17T09:02:09.382Z,4.43
2018-07-17T09:04:37.054Z,4.93
2018-07-17T09:07:04.790Z,4.47
2018-07-17T09:09:32.289Z,6.10
2018-07-17T09:11:59.879Z,4.33
2018-07-17T09:14:27.695Z,4.27
2018-07-17T09:16:55.378Z,4.07
2018-07-17T09:19:22.942Z,4.97
2018-07-17T09:21:50.495Z,3.90
2018-07-17T09:24:18.164Z,4.57
2018-07-17T09:26:45.734Z,3.80
2018-07-17T09:29:13.284Z,3.50
2018-07-17T09:31:40.938Z,3.47
2018-07-17T09:34:08.613Z,3.30
2018-07-17T09:36:36.304Z,3.97
2018-07-17T09:39:05.331Z,3.83
2018-07-17T09:41:32.983Z,3.40
2018-07-17T09:44:01.689Z,3.40
2018-07-17T09:46:29.370Z,3.60
2018-07-17T09:48:57.039Z,3.50
2018-07-17T09:51:24.678Z,3.33
2018-07-17T09:53:52.364Z,3.93
2018-07-17T09:56:20.043Z,3.60
2018-07-17T09:58:47.784Z,3.57
2018-07-17T10:01:21.019Z,3.53
2018-07-17T10:03:48.733Z,3.20
2018-07-17T10:06:16.342Z,3.13
2018-07-17T10:08:43.847Z,2.80
2018-07-17T10:11:11.502Z,3.50
2018-07-17T10:13:39.122Z,5.17
2018-07-17T10:16:06.814Z,3.23
2018-07-17T10:18:34.504Z,4.33
2018-07-17T10:21:02.218Z,2.70
2018-07-17T10:23:29.895Z,2.40
2018-07-17T10:25:57.476Z,2.07
2018-07-17T10:28:25.081Z,2.17
2018-07-17T10:30:52.743Z,2.35
2018-07-17T10:33:20.371Z,3.02
2018-07-17T10:35:48.033Z,3.25
2018-07-17T10:38:15.562Z,2.90
2018-07-17T10:40:43.205Z,3.58
2018-07-17T10:43:10.830Z,2.00
2018-07-17T10:45:38.499Z,2.35
2018-07-17T10:48:06.115Z,2.27
2018-07-17T10:50:33.785Z,3.00
2018-07-17T10:53:01.410Z,2.87
2018-07-17T10:55:29.085Z,3.62
2018-07-17T10:57:56.782Z,2.60
2018-07-17T11:00:24.360Z,2.45
2018-07-17T11:02:52.050Z,3.30
2018-07-17T11:05:19.816Z,2.15
2018-07-17T11:07:47.321Z,8.30
2018-07-17T11:10:15.120Z,2.87
2018-07-17T11:12:42.746Z,2.70
2018-07-17T11:15:10.439Z,2.62
2018-07-17T11:17:38.075Z,3.70
2018-07-17T11:20:05.905Z,3.08
2018-07-17T11:22:33.626Z,3.20
2018-07-17T11:25:01.320Z,3.15
2018-07-17T11:27:28.976Z,2.63
2018-07-17T11:29:56.630Z,3.00
2018-07-17T11:32:24.322Z,2.70
2018-07-17T11:34:52.040Z,3.73
2018-07-17T11:37:19.599Z,3.10
2018-07-17T11:39:47.222Z,3.63
2018-07-17T11:42:14.917Z,3.30
2018-07-17T11:44:42.535Z,2.95
2018-07-17T11:47:10.275Z,3.17
2018-07-17T11:49:37.795Z,3.17
2018-07-17T11:52:05.470Z,4.12
2018-07-17T11:54:33.168Z,3.55
2018-07-17T11:57:00.848Z,3.52
2018-07-17T11:59:28.480Z,3.10
2018-07-17T12:01:56.005Z,3.17
2018-07-17T12:04:23.658Z,2.98
2018-07-17T12:06:51.272Z,3.22
2018-07-17T12:09:18.963Z,2.63
2018-07-17T12:11:46.669Z,2.60
2018-07-17T12:14:14.330Z,4.23
2018-07-17T12:16:41.980Z,2.00
2018-07-17T12:19:09.639Z,2.47
2018-07-17T12:21:37.287Z,2.20
2018-07-17T12:24:05.054Z,3.07
2018-07-17T12:26:32.564Z,4.20
2018-07-17T12:29:00.118Z,3.83
2018-07-17T12:31:27.758Z,2.30
2018-07-17T12:33:55.433Z,1.93
2018-07-17T12:36:23.155Z,2.20
2018-07-17T12:38:50.818Z,2.43
2018-07-17T12:41:18.521Z,3.27
2018-07-17T12:43:46.153Z,2.10
2018-07-17T12:46:13.835Z,2.08
2018-07-17T12:48:41.480Z,2.00
2018-07-17T12:51:09.018Z,1.80
2018-07-17T12:53:36.683Z,1.80
2018-07-17T12:56:04.619Z,1.70
2018-07-17T12:58:32.291Z,2.90
2018-07-17T13:01:00.026Z,1.87
2018-07-17T13:03:27.695Z,4.07
2018-07-17T13:05:55.408Z,2.77
2018-07-17T13:08:23.030Z,2.58
2018-07-17T13:10:51.580Z,2.70
2018-07-17T13:13:19.198Z,2.55
2018-07-17T13:15:46.809Z,2.60
2018-07-17T13:18:14.344Z,2.77
2018-07-17T13:20:41.980Z,2.92
2018-07-17T13:23:09.672Z,2.62
2018-07-17T13:25:37.336Z,2.80
2018-07-17T13:28:05.008Z,3.08
2018-07-17T13:30:32.680Z,2.50
2018-07-17T13:33:00.318Z,2.20
2018-07-17T13:35:27.950Z,3.80
2018-07-17T13:37:55.709Z,2.90
2018-07-17T13:40:23.360Z,3.87
2018-07-17T13:42:50.985Z,2.60
2018-07-17T13:45:18.610Z,3.00
2018-07-17T13:47:46.270Z,2.55
2018-07-17T13:50:14.080Z,2.75
2018-07-17T13:52:41.770Z,2.50
2018-07-17T13:55:09.496Z,2.45
2018-07-17T13:57:37.144Z,2.30
2018-07-17T14:00:06.562Z,2.33
2018-07-17T14:02:34.256Z,3.02
2018-07-17T14:05:02.046Z,4.83
2018-07-17T14:07:29.718Z,3.02
2018-07-17T14:09:57.616Z,1.90
2018-07-17T14:12:25.369Z,1.95
2018-07-17T14:14:52.930Z,2.42
2018-07-17T14:17:20.638Z,2.42
2018-07-17T14:19:48.363Z,2.05
2018-07-17T14:22:16.036Z,2.42
2018-07-17T14:24:43.526Z,2.67
2018-07-17T14:27:11.192Z,2.98
2018-07-17T14:29:38.852Z,2.47
2018-07-17T14:32:06.527Z,3.00
2018-07-17T14:34:34.280Z,2.87
2018-07-17T14:37:01.954Z,3.25
2018-07-17T14:39:29.612Z,2.42
2018-07-17T14:41:57.363Z,2.25
2018-07-17T14:44:25.366Z,2.60
2018-07-17T14:46:53.036Z,3.85
2018-07-17T14:49:20.696Z,2.45
2018-07-17T14:51:50.614Z,3.50
2018-07-17T14:54:18.351Z,2.47
2018-07-17T14:56:45.908Z,3.85
2018-07-17T14:59:14.827Z,2.45
2018-07-17T15:01:43.164Z,3.80
2018-07-17T15:04:10.900Z,4.40
2018-07-17T15:06:38.522Z,2.90
2018-07-17T15:09:08.190Z,4.47
2018-07-17T15:11:35.863Z,3.27
2018-07-17T15:14:03.434Z,3.37
2018-07-17T15:16:31.084Z,5.23
2018-07-17T15:18:58.757Z,3.83
2018-07-17T15:21:26.414Z,4.60
2018-07-17T15:23:54.252Z,3.43
2018-07-17T15:26:22.002Z,4.90
2018-07-17T15:28:49.680Z,4.53
2018-07-17T15:31:17.457Z,7.20
2018-07-17T15:33:45.081Z,4.40
2018-07-17T15:36:12.782Z,4.47
2018-07-17T15:38:40.483Z,3.53
2018-07-17T15:41:08.191Z,3.80
2018-07-17T15:43:36.190Z,4.17
2018-07-17T15:46:03.986Z,5.00
2018-07-17T15:48:31.836Z,5.23
2018-07-17T15:50:59.518Z,5.43
2018-07-17T15:53:27.246Z,3.37
2018-07-17T15:55:55.004Z,3.67
2018-07-17T15:58:22.670Z,4.13
2018-07-17T16:00:50.357Z,4.33
2018-07-17T16:03:18.001Z,3.80
2018-07-17T16:05:45.908Z,4.10
2018-07-17T16:08:13.507Z,3.67
2018-07-17T16:10:41.176Z,3.80
2018-07-17T16:13:08.743Z,4.30
2018-07-17T16:15:36.445Z,4.40
2018-07-17T16:18:04.188Z,4.27
2018-07-17T16:20:31.878Z,4.70
2018-07-17T16:22:59.450Z,4.47
2018-07-17T16:25:27.263Z,4.60
2018-07-17T16:27:55.126Z,4.20
2018-07-17T16:30:22.873Z,3.73
2018-07-17T16:32:51.574Z,3.50
2018-07-17T16:35:19.333Z,3.57
2018-07-17T16:37:47.081Z,4.23
2018-07-17T16:40:14.867Z,4.10
2018-07-17T16:42:42.487Z,3.80
2018-07-17T16:45:10.165Z,3.40
2018-07-17T16:47:37.901Z,4.27
2018-07-17T16:50:05.954Z,4.07
2018-07-17T16:52:33.734Z,4.43
2018-07-17T16:55:01.528Z,3.63
2018-07-17T16:57:29.326Z,3.83
2018-07-17T16:59:57.115Z,4.57
2018-07-17T17:02:24.727Z,3.60
2018-07-17T17:04:52.526Z,3.27
2018-07-17T17:07:20.223Z,3.60
2018-07-17T17:09:47.861Z,3.57
2018-07-17T17:12:15.607Z,3.13
2018-07-17T17:14:43.445Z,3.50
2018-07-17T17:17:11.128Z,5.00
2018-07-17T17:19:38.923Z,3.37
2018-07-17T17:22:06.679Z,3.53
2018-07-17T17:24:34.357Z,2.97
2018-07-17T17:27:02.103Z,2.90
2018-07-17T17:29:29.965Z,3.07
2018-07-17T17:31:57.623Z,2.90
2018-07-17T17:34:25.178Z,3.27
2018-07-17T17:36:52.783Z,2.97
2018-07-17T17:39:20.454Z,3.50
2018-07-17T17:41:48.236Z,3.20
2018-07-17T17:44:15.943Z,2.70
2018-07-17T17:46:43.767Z,3.27
2018-07-17T17:49:11.507Z,3.60
2018-07-17T17:51:39.076Z,2.63
2018-07-17T17:54:06.832Z,5.47
2018-07-17T17:56:34.868Z,3.10
2018-07-17T17:59:02.598Z,2.87
2018-07-17T18:01:30.228Z,3.23
2018-07-17T18:03:57.756Z,3.37
2018-07-17T18:06:25.487Z,3.13
2018-07-17T18:08:53.057Z,3.57
2018-07-17T18:11:20.747Z,3.90
2018-07-17T18:13:48.472Z,3.73
2018-07-17T18:16:16.176Z,5.43
2018-07-17T18:18:43.908Z,3.70
2018-07-17T18:21:11.581Z,4.70
2018-07-17T18:23:39.159Z,4.17
2018-07-17T18:26:07.011Z,3.43
2018-07-17T18:28:34.737Z,4.50
2018-07-17T18:31:02.351Z,3.67
2018-07-17T18:33:29.964Z,4.33
2018-07-17T18:35:57.606Z,3.77
2018-07-17T18:38:25.233Z,3.47
2018-07-17T18:40:52.986Z,3.70
2018-07-17T18:43:20.667Z,4.80
2018-07-17T18:45:48.444Z,3.70
2018-07-17T18:48:16.250Z,3.47
2018-07-17T18:50:43.867Z,3.73
2018-07-17T18:53:11.606Z,3.50
2018-07-17T18:55:39.347Z,3.37
2018-07-17T18:58:06.987Z,3.83
2018-07-17T19:00:35.095Z,3.37
2018-07-17T19:03:02.823Z,4.50
2018-07-17T19:05:30.611Z,3.87
2018-07-17T19:07:58.406Z,3.63
2018-07-17T19:10:26.171Z,3.43
2018-07-17T19:12:54.026Z,6.27
2018-07-17T19:15:21.676Z,3.70
2018-07-17T19:17:49.488Z,4.90
2018-07-17T19:20:17.245Z,4.33
2018-07-17T19:22:44.930Z,3.50
2018-07-17T19:25:12.541Z,2.57
2018-07-17T19:27:40.112Z,3.40
2018-07-17T19:30:07.726Z,2.60
2018-07-17T19:32:35.443Z,3.10
2018-07-17T19:35:03.147Z,3.20
2018-07-17T19:37:30.924Z,3.40
2018-07-17T19:39:58.487Z,2.53
2018-07-17T19:42:26.181Z,2.20
2018-07-17T19:44:53.982Z,1.90
2018-07-17T19:47:21.737Z,2.13
2018-07-17T19:49:49.458Z,2.07
2018-07-17T19:52:17.019Z,1.50
2018-07-17T19:54:44.758Z,1.90
2018-07-17T19:57:12.523Z,3.53
2018-07-17T19:59:40.333Z,1.50
2018-07-17T20:02:08.013Z,2.10
2018-07-17T20:04:35.686Z,1.50
2018-07-17T20:07:03.413Z,1.47
2018-07-17T20:09:31.124Z,1.87
2018-07-17T20:11:58.880Z,2.50
2018-07-17T20:14:26.567Z,1.50
2018-07-17T20:16:54.281Z,2.10
2018-07-17T20:19:21.982Z,1.60
2018-07-17T20:21:49.750Z,1.90
2018-07-17T20:24:17.401Z,1.77
2018-07-17T20:26:45.195Z,2.20
2018-07-17T20:29:12.872Z,2.00
2018-07-17T20:31:40.431Z,2.00
2018-07-17T20:34:08.099Z,1.83
2018-07-17T20:36:35.783Z,1.80
2018-07-17T20:39:04.028Z,2.00
2018-07-17T20:41:31.662Z,1.77
2018-07-17T20:43:59.318Z,2.00
2018-07-17T20:46:27.024Z,2.90
2018-07-17T20:48:54.686Z,2.20
2018-07-17T20:51:22.352Z,2.30
2018-07-17T20:53:50.065Z,1.83
2018-07-17T20:56:17.876Z,2.10
2018-07-17T20:58:45.558Z,2.37
2018-07-17T21:01:13.814Z,2.17
2018-07-17T21:03:41.396Z,1.80
2018-07-17T21:06:09.407Z,2.10
2018-07-17T21:08:37.744Z,1.87
2018-07-17T21:11:05.748Z,2.67
2018-07-17T21:13:33.872Z,2.47
2018-07-17T21:16:02.206Z,2.53
2018-07-17T21:18:29.872Z,2.93
2018-07-17T21:20:57.440Z,2.70
2018-07-17T21:23:25.987Z,2.90
2018-07-17T21:25:54.403Z,2.30
2018-07-17T21:28:23.099Z,2.00
2018-07-17T21:30:51.511Z,2.80
2018-07-17T21:33:19.759Z,2.30
2018-07-17T21:35:48.224Z,2.70
2018-07-17T21:38:16.854Z,2.47
2018-07-17T21:40:44.597Z,3.13
2018-07-17T21:43:13.748Z,3.43
2018-07-17T21:45:41.482Z,3.23
2018-07-17T21:48:09.123Z,4.07
2018-07-17T21:50:37.622Z,3.87
2018-07-17T21:53:06.019Z,2.87
2018-07-17T21:55:34.629Z,3.92
2018-07-17T21:58:02.962Z,2.85
2018-07-17T22:00:31.453Z,2.60
2018-07-17T22:02:59.546Z,4.90
2018-07-17T22:05:28.516Z,2.63
2018-07-17T22:07:56.546Z,4.77
2018-07-17T22:10:24.985Z,3.30
2018-07-17T22:12:52.528Z,3.27
2018-07-17T22:15:20.410Z,3.10
2018-07-17T22:17:48.530Z,3.10
2018-07-17T22:20:17.283Z,3.33
2018-07-17T22:22:44.902Z,3.43
2018-07-17T22:25:12.928Z,2.80
2018-07-17T22:27:40.686Z,2.87
2018-07-17T22:30:09.754Z,4.00
2018-07-17T22:32:37.519Z,2.90
2018-07-17T22:35:05.288Z,3.37
2018-07-17T22:37:32.863Z,3.27
2018-07-17T22:40:00.539Z,2.93
2018-07-17T22:42:28.223Z,2.70
2018-07-17T22:44:55.936Z,3.73
2018-07-17T22:47:23.590Z,3.10
2018-07-17T22:49:51.122Z,3.03
2018-07-17T22:52:18.602Z,4.70
2018-07-17T22:54:46.202Z,3.90
2018-07-17T22:57:13.883Z,2.83
2018-07-17T22:59:41.487Z,4.53
2018-07-17T23:02:09.183Z,3.13
2018-07-17T23:04:36.767Z,4.87
2018-07-17T23:07:04.404Z,3.20
2018-07-17T23:09:32.086Z,3.77
2018-07-17T23:11:59.658Z,3.20
2018-07-17T23:14:27.185Z,3.97
2018-07-17T23:16:54.828Z,3.77
2018-07-17T23:19:22.501Z,5.10
2018-07-17T23:21:50.118Z,3.10
2018-07-17T23:24:17.606Z,4.33
2018-07-17T23:26:45.281Z,3.27
2018-07-17T23:29:12.901Z,4.57
2018-07-17T23:31:40.522Z,4.20
2018-07-17T23:34:08.143Z,3.60
2018-07-17T23:36:35.684Z,3.83
2018-07-17T23:39:05.128Z,4.37
2018-07-17T23:41:33.429Z,3.93
2018-07-17T23:44:01.174Z,3.03
2018-07-17T23:46:28.690Z,5.73
2018-07-17T23:48:56.293Z,5.00
2018-07-17T23:51:23.893Z,4.00
2018-07-17T23:53:51.515Z,3.47
2018-07-17T23:56:19.253Z,3.70
2018-07-17T23:58:46.984Z,3.33
